X  Κλείσε Στοιχεία αεροπορικών μετεωρολογικών δεδομένων METAR     EDDM Munich Airport
θερμοκρασία
18°C θερμοκρασία
10°C Σημείο δρόσου
60% Υγρασία



Ανεμος
11 KM/H
7 MPH
3 M/S
6 KTS



220°
ND
Τρέχουσες συνθήκες

Μερικώς συννεφιασμένος Μερικώς συννεφιασμένος
πίεση 1012.87 (hPa) - 29.91 (inHg)
Ορατότητα 6 (μίλι) - 9.7 (km)
Aεροδρόμιο
Κωδικός αεροδρομίου EDDM

Τοποθεσία: Munich Airport
Απόσταση: 73 (km)

Metar:
EDDM 191020Z AUTO 22006KT 190V310 9999 FEW033 18/10 Q1013 NOSIG

ώρα: 19-05-2024 10:20 CEST